createdAt,value
2018-07-11T00:02:18.027Z,28.60
2018-07-11T00:04:45.904Z,24.70
2018-07-11T00:07:13.690Z,24.93
2018-07-11T00:09:41.423Z,24.97
2018-07-11T00:12:09.247Z,23.53
2018-07-11T00:14:37.023Z,22.23
2018-07-11T00:17:10.283Z,22.57
2018-07-11T00:19:38.118Z,22.47
2018-07-11T00:22:06.090Z,22.03
2018-07-11T00:24:33.927Z,21.77
2018-07-11T00:27:01.787Z,22.03
2018-07-11T00:29:29.648Z,22.90
2018-07-11T00:31:57.790Z,23.10
2018-07-11T00:34:25.618Z,24.30
2018-07-11T00:36:53.464Z,23.83
2018-07-11T00:39:21.261Z,26.20
2018-07-11T00:41:49.144Z,25.77
2018-07-11T00:44:16.976Z,27.73
2018-07-11T00:46:44.841Z,26.43
2018-07-11T00:49:21.184Z,27.43
2018-07-11T00:54:18.420Z,32.23
2018-07-11T00:56:46.265Z,34.30
2018-07-11T00:59:20.479Z,31.10
2018-07-11T01:01:48.365Z,32.63
2018-07-11T01:04:16.256Z,31.50
2018-07-11T01:06:44.094Z,31.23
2018-07-11T01:09:12.008Z,31.30
2018-07-11T01:11:39.832Z,29.13
2018-07-11T01:14:08.696Z,31.93
2018-07-11T01:16:36.567Z,30.50
2018-07-11T01:19:06.995Z,35.47
2018-07-11T01:21:35.414Z,33.93
2018-07-11T01:24:03.237Z,36.20
2018-07-11T01:26:34.028Z,32.80
2018-07-11T01:29:02.011Z,32.27
2018-07-11T01:31:29.834Z,28.93
2018-07-11T01:33:58.062Z,30.07
2018-07-11T01:36:26.211Z,29.50
2018-07-11T01:38:54.764Z,28.37
2018-07-11T01:41:22.584Z,29.33
2018-07-11T01:43:50.413Z,29.43
2018-07-11T01:46:18.267Z,30.47
2018-07-11T01:48:46.247Z,32.50
2018-07-11T01:51:15.134Z,30.37
2018-07-11T01:53:44.000Z,31.73
2018-07-11T01:56:11.847Z,31.03
2018-07-11T01:58:52.535Z,32.10
2018-07-11T02:01:20.431Z,33.30
2018-07-11T02:03:51.172Z,37.97
2018-07-11T02:06:26.686Z,33.43
2018-07-11T02:08:54.652Z,31.07
2018-07-11T02:11:22.702Z,29.87
2018-07-11T02:13:50.752Z,28.40
2018-07-11T02:16:18.710Z,28.33
2018-07-11T02:18:46.659Z,27.20
2018-07-11T02:21:16.757Z,28.47
2018-07-11T02:23:44.709Z,32.70
2018-07-11T02:26:12.736Z,34.33
2018-07-11T02:28:40.740Z,35.50
2018-07-11T02:31:08.771Z,40.90
2018-07-11T02:33:36.715Z,43.77
2018-07-11T02:36:06.718Z,48.37
2018-07-11T02:38:35.838Z,48.13
2018-07-11T02:41:03.787Z,50.67
2018-07-11T02:43:31.665Z,46.30
2018-07-11T02:45:59.725Z,44.27
2018-07-11T02:48:27.707Z,45.27
2018-07-11T02:50:55.804Z,43.17
2018-07-11T02:53:24.311Z,47.07
2018-07-11T02:55:52.912Z,49.47
2018-07-11T02:58:20.870Z,50.13
2018-07-11T03:00:49.356Z,50.37
2018-07-11T03:03:17.531Z,53.20
2018-07-11T03:05:45.377Z,57.60
2018-07-11T03:08:28.796Z,58.23
2018-07-11T03:10:56.655Z,60.20
2018-07-11T03:13:24.451Z,56.03
2018-07-11T03:15:52.250Z,56.63
2018-07-11T03:18:20.621Z,54.97
2018-07-11T03:20:48.397Z,56.80
2018-07-11T03:23:16.263Z,56.43
2018-07-11T03:25:44.087Z,55.93
2018-07-11T03:28:11.901Z,57.63
2018-07-11T03:30:39.758Z,56.77
2018-07-11T03:33:07.562Z,58.13
2018-07-11T03:35:35.299Z,58.00
2018-07-11T03:38:03.081Z,62.20
2018-07-11T03:40:30.844Z,66.73
2018-07-11T03:42:58.702Z,63.80
2018-07-11T03:45:26.573Z,66.57
2018-07-11T03:47:54.358Z,69.23
2018-07-11T03:50:22.213Z,72.77
2018-07-11T03:52:49.968Z,70.33
2018-07-11T03:55:17.766Z,74.07
2018-07-11T03:57:45.533Z,73.53
2018-07-11T04:00:13.474Z,77.03
2018-07-11T04:02:41.356Z,76.23
2018-07-11T04:05:09.118Z,75.97
2018-07-11T04:07:36.833Z,75.10
2018-07-11T04:10:04.739Z,71.37
2018-07-11T04:12:32.493Z,75.80
2018-07-11T04:20:26.195Z,67.93
2018-07-11T04:22:54.040Z,65.87
2018-07-11T04:25:21.962Z,68.07
2018-07-11T04:27:49.779Z,69.53
2018-07-11T04:30:17.586Z,70.77
2018-07-11T04:32:45.557Z,69.97
2018-07-11T04:35:13.467Z,56.17
2018-07-11T04:37:41.354Z,51.33
2018-07-11T04:40:09.128Z,50.73
2018-07-11T04:42:36.999Z,48.27
2018-07-11T04:45:04.749Z,44.27
2018-07-11T04:47:32.631Z,42.23
2018-07-11T04:50:00.526Z,36.60
2018-07-11T04:52:28.410Z,31.90
2018-07-11T04:54:56.253Z,26.20
2018-07-11T04:57:24.135Z,24.63
2018-07-11T04:59:51.889Z,21.07
2018-07-11T05:02:19.652Z,18.87
2018-07-11T05:04:47.459Z,18.53
2018-07-11T05:07:15.215Z,27.43
2018-07-11T05:09:42.975Z,14.63
2018-07-11T05:12:10.774Z,14.63
2018-07-11T05:14:39.570Z,13.47
2018-07-11T05:17:07.365Z,12.90
2018-07-11T05:19:35.169Z,11.87
2018-07-11T05:22:02.937Z,14.30
2018-07-11T05:24:51.236Z,8.73
2018-07-11T05:27:26.680Z,10.23
2018-07-11T05:29:54.504Z,8.77
2018-07-11T05:32:22.307Z,7.57
2018-07-11T05:34:50.067Z,7.53
2018-07-11T05:37:17.838Z,6.77
2018-07-11T05:39:45.572Z,6.33
2018-07-11T05:42:13.386Z,6.73
2018-07-11T05:44:41.164Z,6.90
2018-07-11T05:47:09.954Z,9.80
2018-07-11T05:49:37.760Z,8.90
2018-07-11T05:52:06.600Z,5.20
2018-07-11T05:54:34.737Z,5.97
2018-07-11T05:57:02.792Z,5.07
2018-07-11T05:59:30.592Z,6.80
2018-07-11T06:01:58.615Z,4.87
2018-07-11T06:04:26.412Z,5.57
2018-07-11T06:06:54.189Z,5.03
2018-07-11T06:09:21.989Z,5.03
2018-07-11T06:11:49.776Z,4.58
2018-07-11T06:14:17.581Z,4.97
2018-07-11T06:16:45.366Z,3.83
2018-07-11T06:19:13.143Z,4.40
2018-07-11T06:21:41.383Z,3.95
2018-07-11T06:24:09.170Z,3.80
2018-07-11T06:26:36.906Z,3.10
2018-07-11T06:29:04.688Z,2.83
2018-07-11T06:31:32.463Z,3.50
2018-07-11T06:34:00.238Z,8.45
2018-07-11T06:36:28.008Z,4.12
2018-07-11T06:38:55.791Z,2.87
2018-07-11T06:41:23.515Z,3.47
2018-07-11T06:43:51.309Z,3.50
2018-07-11T06:46:19.088Z,4.25
2018-07-11T06:48:48.870Z,3.50
2018-07-11T06:51:16.628Z,3.67
2018-07-11T06:53:44.413Z,3.37
2018-07-11T06:56:12.293Z,3.98
2018-07-11T06:58:41.081Z,3.83
2018-07-11T07:01:08.974Z,2.98
2018-07-11T07:03:37.013Z,2.70
2018-07-11T07:06:04.753Z,3.70
2018-07-11T07:08:32.539Z,3.27
2018-07-11T07:11:00.412Z,2.08
2018-07-11T07:13:28.298Z,1.87
2018-07-11T07:15:56.169Z,2.25
2018-07-11T07:18:27.685Z,3.02
2018-07-11T07:20:55.492Z,3.37
2018-07-11T07:23:23.490Z,2.17
2018-07-11T07:25:51.324Z,2.40
2018-07-11T07:28:20.217Z,3.00
2018-07-11T07:30:48.131Z,2.25
2018-07-11T07:33:16.255Z,2.17
2018-07-11T07:35:44.158Z,1.90
2018-07-11T07:38:12.073Z,1.80
2018-07-11T07:40:40.155Z,2.02
2018-07-11T07:43:08.261Z,1.47
2018-07-11T07:45:37.112Z,1.50
2018-07-11T07:48:05.011Z,2.02
2018-07-11T07:50:33.254Z,1.00
2018-07-11T07:53:01.824Z,1.25
2018-07-11T07:55:29.959Z,0.85
2018-07-11T07:57:57.920Z,1.10
2018-07-11T08:00:25.844Z,0.85
2018-07-11T08:02:53.735Z,0.80
2018-07-11T08:05:21.609Z,1.10
2018-07-11T08:07:49.461Z,1.60
2018-07-11T08:10:17.288Z,1.42
2018-07-11T08:14:17.358Z,1.20
2018-07-11T08:16:46.549Z,1.10
2018-07-11T08:19:14.511Z,1.42
2018-07-11T08:24:29.992Z,1.70
2018-07-11T08:28:08.771Z,1.12
2018-07-11T08:31:46.225Z,0.90
2018-07-11T08:34:48.618Z,1.20
2018-07-11T08:39:32.732Z,1.42
2018-07-11T08:42:11.855Z,1.05
2018-07-11T08:44:49.272Z,1.02
2018-07-11T08:50:03.430Z,0.80
2018-07-11T08:52:49.616Z,1.02
2018-07-11T08:55:32.554Z,0.80
2018-07-11T09:00:20.921Z,1.00
2018-07-11T09:05:48.403Z,0.88
2018-07-11T09:08:38.555Z,0.72
2018-07-11T09:12:20.722Z,0.60
2018-07-11T09:14:59.464Z,1.57
2018-07-11T09:18:10.257Z,0.90
2018-07-11T09:20:53.081Z,0.60
2018-07-11T09:25:34.526Z,0.62
2018-07-11T09:28:02.452Z,1.05
2018-07-11T09:30:30.302Z,1.10
2018-07-11T09:32:59.065Z,0.80
2018-07-11T09:35:26.821Z,0.75
2018-07-11T09:37:54.844Z,0.90
2018-07-11T09:40:22.693Z,0.95
2018-07-11T09:42:50.653Z,0.68
2018-07-11T09:45:18.493Z,0.70
2018-07-11T09:47:46.620Z,0.60
2018-07-11T09:50:14.502Z,0.60
2018-07-11T09:52:42.401Z,0.40
2018-07-11T09:55:10.199Z,3.80
2018-07-11T09:57:39.257Z,0.75
2018-07-11T10:00:11.898Z,0.65
2018-07-11T10:02:40.021Z,0.60
2018-07-11T10:05:23.737Z,1.02
2018-07-11T10:07:51.999Z,0.53
2018-07-11T10:10:19.852Z,0.78
2018-07-11T10:12:47.866Z,0.90
2018-07-11T10:15:15.686Z,0.60
2018-07-11T10:17:43.667Z,0.70
2018-07-11T10:20:11.484Z,0.65
2018-07-11T10:22:39.570Z,1.22
2018-07-11T10:25:07.435Z,0.70
2018-07-11T10:27:35.564Z,0.40
2018-07-11T10:30:04.075Z,0.70
2018-07-11T10:32:32.271Z,1.05
2018-07-11T10:35:00.420Z,0.50
2018-07-11T10:37:28.546Z,1.00
2018-07-11T10:39:56.510Z,0.50
2018-07-11T10:42:25.313Z,1.00
2018-07-11T10:44:53.426Z,0.57
2018-07-11T10:47:21.750Z,0.80
2018-07-11T10:49:51.500Z,0.60
2018-07-11T10:52:19.765Z,0.40
2018-07-11T10:54:47.909Z,0.62
2018-07-11T10:57:15.786Z,0.78
2018-07-11T10:59:43.810Z,0.60
2018-07-11T11:02:13.452Z,0.42
2018-07-11T11:04:41.300Z,0.80
2018-07-11T11:07:09.094Z,0.40
2018-07-11T11:09:37.167Z,0.98
2018-07-11T11:12:05.036Z,3.52
2018-07-11T11:14:33.070Z,1.75
2018-07-11T11:17:00.883Z,0.45
2018-07-11T11:19:28.748Z,0.40
2018-07-11T11:21:56.526Z,0.50
2018-07-11T11:24:24.522Z,0.47
2018-07-11T11:26:52.379Z,0.70
2018-07-11T11:29:20.220Z,0.60
2018-07-11T11:31:48.103Z,0.40
2018-07-11T11:34:16.116Z,0.80
2018-07-11T11:36:44.257Z,1.00
2018-07-11T11:39:12.082Z,0.60
2018-07-11T11:41:41.038Z,0.85
2018-07-11T11:44:08.835Z,0.60
2018-07-11T11:46:36.680Z,0.90
2018-07-11T11:49:04.534Z,0.60
2018-07-11T11:51:32.418Z,0.70
2018-07-11T11:54:00.229Z,0.60
2018-07-11T11:56:28.177Z,0.60
2018-07-11T11:59:12.384Z,0.65
2018-07-11T12:01:40.255Z,3.52
2018-07-11T12:04:08.051Z,2.15
2018-07-11T12:06:35.933Z,1.00
2018-07-11T12:09:04.020Z,0.70
2018-07-11T12:11:31.870Z,0.60
2018-07-11T12:13:59.705Z,0.90
2018-07-11T12:16:27.463Z,0.80
2018-07-11T12:18:55.347Z,1.37
2018-07-11T12:21:23.270Z,0.93
2018-07-11T12:23:51.256Z,1.72
2018-07-11T12:26:19.170Z,1.10
2018-07-11T12:28:47.122Z,1.62
2018-07-11T12:31:14.923Z,1.87
2018-07-11T12:33:42.757Z,1.02
2018-07-11T12:36:10.517Z,1.52
2018-07-11T12:39:17.604Z,1.22
2018-07-11T12:42:00.832Z,1.62
2018-07-11T12:46:57.664Z,1.50
2018-07-11T12:49:26.921Z,1.47
2018-07-11T12:51:55.965Z,1.55
2018-07-11T12:54:23.890Z,0.70
2018-07-11T12:56:52.703Z,1.22
2018-07-11T12:59:21.872Z,0.80
2018-07-11T13:01:49.746Z,1.12
2018-07-11T13:04:17.623Z,0.80
2018-07-11T13:06:45.487Z,0.70
2018-07-11T13:09:13.283Z,0.60
2018-07-11T13:11:41.106Z,0.68
2018-07-11T13:14:12.440Z,1.60
2018-07-11T13:16:40.416Z,1.35
2018-07-11T13:19:09.092Z,1.20
2018-07-11T13:21:36.968Z,1.32
2018-07-11T13:24:04.769Z,0.68
2018-07-11T13:26:32.566Z,0.75
2018-07-11T13:29:02.453Z,1.25
2018-07-11T13:31:30.215Z,1.00
2018-07-11T13:33:58.220Z,0.70
2018-07-11T13:36:25.991Z,0.82
2018-07-11T13:39:28.410Z,0.80
2018-07-11T13:42:41.052Z,0.72
2018-07-11T13:45:08.892Z,0.70
2018-07-11T13:47:36.682Z,0.68
2018-07-11T13:50:04.598Z,0.70
2018-07-11T13:52:32.499Z,0.80
2018-07-11T13:55:00.429Z,0.75
2018-07-11T13:57:28.526Z,0.80
2018-07-11T13:59:56.492Z,0.50
2018-07-11T14:02:24.584Z,0.70
2018-07-11T14:04:52.628Z,0.50
2018-07-11T14:07:20.505Z,0.70
2018-07-11T14:09:49.541Z,0.60
2018-07-11T14:12:17.424Z,0.70
2018-07-11T14:14:46.481Z,0.68
2018-07-11T14:17:14.392Z,1.07
2018-07-11T14:19:43.322Z,0.65
2018-07-11T14:22:11.272Z,0.50
2018-07-11T14:24:39.938Z,0.60
2018-07-11T14:27:07.798Z,0.60
2018-07-11T14:29:35.701Z,0.60
2018-07-11T14:32:03.787Z,0.60
2018-07-11T14:34:31.838Z,0.53
2018-07-11T14:37:00.930Z,0.75
2018-07-11T14:39:29.362Z,0.90
2018-07-11T14:41:57.258Z,0.60
2018-07-11T14:44:25.525Z,0.60
2018-07-11T14:53:36.693Z,0.60
2018-07-11T14:56:05.539Z,0.47
2018-07-11T14:58:33.436Z,0.60
2018-07-11T15:01:01.431Z,0.57
2018-07-11T15:03:29.262Z,0.68
2018-07-11T15:05:57.079Z,0.98
2018-07-11T15:08:25.302Z,0.57
2018-07-11T15:11:16.790Z,0.98
2018-07-11T15:13:45.071Z,0.78
2018-07-11T15:16:13.086Z,0.80
2018-07-11T15:18:41.231Z,0.90
2018-07-11T15:21:09.405Z,1.27
2018-07-11T15:23:37.641Z,1.07
2018-07-11T15:26:05.764Z,1.25
2018-07-11T15:28:34.058Z,1.65
2018-07-11T15:31:02.333Z,0.60
2018-07-11T15:33:30.353Z,1.00
2018-07-11T15:35:58.453Z,1.95
2018-07-11T15:38:26.882Z,1.10
2018-07-11T15:40:55.267Z,1.40
2018-07-11T15:43:25.281Z,1.40
2018-07-11T15:45:53.849Z,1.22
2018-07-11T15:48:21.895Z,1.35
2018-07-11T15:50:50.948Z,1.20
2018-07-11T15:53:19.953Z,1.80
2018-07-11T15:55:48.549Z,0.93
2018-07-11T15:58:17.188Z,0.90
2018-07-11T16:00:45.219Z,1.27
2018-07-11T16:03:13.913Z,1.07
2018-07-11T16:05:44.446Z,0.78
2018-07-11T16:08:17.411Z,1.90
2018-07-11T16:10:48.976Z,0.78
2018-07-11T16:13:23.974Z,1.15
2018-07-11T16:15:51.958Z,0.70
2018-07-11T16:18:19.776Z,0.82
2018-07-11T16:20:47.783Z,2.30
2018-07-11T16:23:15.675Z,1.50
2018-07-11T16:26:17.702Z,0.80
2018-07-11T16:31:47.695Z,0.85
2018-07-11T16:34:17.577Z,0.95
2018-07-11T16:36:46.341Z,0.88
2018-07-11T16:39:15.828Z,0.70
2018-07-11T16:41:44.096Z,0.80
2018-07-11T16:44:13.069Z,0.85
2018-07-11T16:46:42.106Z,0.90
2018-07-11T16:49:10.396Z,0.82
2018-07-11T16:51:39.781Z,1.42
2018-07-11T16:54:07.909Z,0.68
2018-07-11T16:56:37.407Z,1.37
2018-07-11T16:59:05.822Z,0.78
2018-07-11T17:01:42.406Z,0.95
2018-07-11T17:04:11.775Z,1.25
2018-07-11T17:06:40.120Z,0.60
2018-07-11T17:09:09.166Z,0.90
2018-07-11T17:11:38.214Z,0.88
2018-07-11T17:14:07.512Z,0.80
2018-07-11T17:16:38.874Z,0.90
2018-07-11T17:19:14.625Z,0.68
2018-07-11T17:21:49.082Z,0.90
2018-07-11T17:24:20.438Z,0.70
2018-07-11T17:26:50.824Z,1.15
2018-07-11T17:29:25.494Z,1.00
2018-07-11T17:31:58.835Z,0.80
2018-07-11T17:34:27.393Z,0.78
2018-07-11T17:36:58.142Z,0.70
2018-07-11T17:39:56.190Z,0.47
2018-07-11T17:45:25.629Z,1.65
2018-07-11T17:48:00.079Z,0.93
2018-07-11T17:50:28.798Z,0.55
2018-07-11T17:53:09.666Z,0.75
2018-07-11T17:56:17.924Z,1.05
2018-07-11T17:58:57.779Z,0.80
2018-07-11T18:01:40.578Z,1.07
2018-07-11T18:04:12.128Z,0.90
2018-07-11T18:06:44.849Z,1.10
2018-07-11T18:09:13.843Z,1.10
2018-07-11T18:11:56.687Z,0.95
2018-07-11T18:14:54.969Z,1.12
2018-07-11T18:17:34.803Z,0.80
2018-07-11T18:20:14.972Z,1.05
2018-07-11T18:22:53.577Z,1.40
2018-07-11T18:25:32.735Z,1.50
2018-07-11T18:31:49.371Z,1.70
2018-07-11T18:34:29.419Z,1.70
2018-07-11T18:37:41.140Z,1.95
2018-07-11T18:40:23.248Z,1.60
2018-07-11T18:43:07.919Z,4.70
2018-07-11T18:45:45.675Z,2.25
2018-07-11T18:49:25.749Z,1.90
2018-07-11T18:52:30.053Z,1.95
2018-07-11T18:55:18.207Z,2.25
2018-07-11T18:57:55.839Z,1.77
2018-07-11T19:00:34.906Z,2.37
2018-07-11T19:03:14.064Z,1.57
2018-07-11T19:07:59.255Z,3.02
2018-07-11T19:12:41.311Z,2.55
2018-07-11T19:15:15.475Z,2.83
2018-07-11T19:17:56.625Z,5.15
2018-07-11T19:20:30.439Z,4.47
2018-07-11T19:23:12.712Z,4.10
2018-07-11T19:25:51.752Z,4.05
2018-07-11T19:28:28.692Z,3.67
2018-07-11T19:31:01.570Z,3.77
2018-07-11T19:34:08.092Z,3.12
2018-07-11T19:36:44.740Z,2.72
2018-07-11T19:39:22.757Z,3.42
2018-07-11T19:41:56.143Z,3.70
2018-07-11T19:45:36.199Z,2.05
2018-07-11T19:48:43.286Z,2.27
2018-07-11T19:52:25.280Z,2.42
2018-07-11T19:57:00.953Z,3.22
2018-07-11T19:59:29.000Z,3.65
2018-07-11T20:01:57.052Z,4.37
2018-07-11T20:04:24.993Z,4.40
2018-07-11T20:06:52.953Z,3.72
2018-07-11T20:09:33.890Z,4.92
2018-07-11T20:12:22.673Z,4.75
2018-07-11T20:15:11.615Z,5.25
2018-07-11T20:18:00.800Z,5.00
2018-07-11T20:20:28.918Z,5.70
2018-07-11T20:22:57.360Z,5.10
2018-07-11T20:25:25.768Z,6.65
2018-07-11T20:27:53.935Z,5.70
2018-07-11T20:30:22.054Z,6.42
2018-07-11T20:32:50.283Z,7.08
2018-07-11T20:35:18.460Z,5.75
2018-07-11T20:37:47.422Z,6.42
2018-07-11T20:40:41.565Z,6.62
2018-07-11T20:43:22.067Z,7.78
2018-07-11T20:48:55.167Z,6.92
2018-07-11T20:51:23.111Z,7.67
2018-07-11T20:53:51.029Z,8.38
2018-07-11T20:56:19.066Z,7.85
2018-07-11T21:01:03.354Z,7.00
2018-07-11T21:03:43.809Z,7.60
2018-07-11T21:06:21.945Z,7.78
2018-07-11T21:09:02.634Z,8.93
2018-07-11T21:11:46.624Z,10.25
2018-07-11T21:16:26.841Z,9.08
2018-07-11T21:19:00.379Z,9.95
2018-07-11T21:21:28.541Z,9.15
2018-07-11T21:25:26.022Z,10.60
2018-07-11T21:27:53.838Z,9.33
2018-07-11T21:30:22.832Z,10.20
2018-07-11T21:32:50.742Z,10.20
2018-07-11T21:35:19.709Z,10.72
2018-07-11T21:37:47.598Z,10.13
2018-07-11T21:40:16.570Z,12.05
2018-07-11T21:42:44.509Z,12.55
2018-07-11T21:45:12.502Z,11.10
2018-07-11T21:47:40.395Z,11.90
2018-07-11T21:50:08.264Z,13.00
2018-07-11T21:52:36.190Z,12.63
2018-07-11T21:55:04.019Z,13.30
2018-07-11T21:57:31.973Z,13.28
2018-07-11T21:59:59.792Z,13.70
2018-07-11T22:02:27.860Z,15.63
2018-07-11T22:04:55.696Z,16.03
2018-07-11T22:07:24.521Z,15.43
2018-07-11T22:12:17.846Z,14.95
2018-07-11T22:14:46.608Z,15.30
2018-07-11T22:17:25.705Z,16.55
2018-07-11T22:19:52.412Z,14.90
2018-07-11T22:22:20.156Z,14.98
2018-07-11T22:24:46.913Z,15.23
2018-07-11T22:27:13.618Z,15.40
2018-07-11T22:29:40.990Z,16.62
2018-07-11T22:32:07.765Z,16.23
2018-07-11T22:34:34.498Z,16.27
2018-07-11T22:37:01.189Z,15.97
2018-07-11T22:39:28.706Z,15.33
2018-07-11T22:41:55.414Z,18.17
2018-07-11T22:44:22.209Z,17.27
2018-07-11T22:46:48.875Z,17.73
2018-07-11T22:49:16.116Z,16.53
2018-07-11T22:51:42.824Z,15.43
2018-07-11T22:54:09.527Z,17.17
2018-07-11T22:56:36.987Z,15.83
2018-07-11T22:59:05.061Z,15.63
2018-07-11T23:01:31.831Z,11.60
2018-07-11T23:03:58.574Z,12.37
2018-07-11T23:06:25.285Z,12.33
2018-07-11T23:08:52.013Z,12.10
2018-07-11T23:11:18.761Z,12.68
2018-07-11T23:13:45.448Z,12.82
2018-07-11T23:16:13.187Z,12.88
2018-07-11T23:18:39.932Z,12.63
2018-07-11T23:21:06.685Z,12.33
2018-07-11T23:23:33.423Z,15.40
2018-07-11T23:26:00.186Z,11.93
2018-07-11T23:28:26.959Z,12.93
2018-07-11T23:30:55.719Z,13.38
2018-07-11T23:33:22.496Z,12.73
2018-07-11T23:35:49.232Z,14.68
2018-07-11T23:38:16.007Z,13.67
2018-07-11T23:40:42.814Z,14.33
2018-07-11T23:43:09.513Z,11.67
2018-07-11T23:45:36.290Z,12.75
2018-07-11T23:48:03.651Z,12.60
2018-07-11T23:50:31.057Z,12.23
2018-07-11T23:52:57.851Z,12.10
2018-07-11T23:55:24.635Z,13.58
2018-07-11T23:57:51.331Z,11.80
